Terminal Aerodrome Forecast
Issued by NWS

Home | Current Version | Previous Version | Text Only | Print | Product List | Glossary On
Versions: 1 2 3 4 5 6 7 8 9 10 11 12 13 14 15 16 17 18 19 20 21 22 23
618
FTUS46 KOTX 212321
TAFPUW
TAF
KPUW 212321Z 2200/2224 26014G20KT P6SM FEW070 BKN200
     FM220200 27011KT P6SM BKN200
     FM220400 VRB04KT P6SM SCT150 BKN200
     FM221800 30007KT P6SM SCT150 BKN200=

USA.gov is the U.S. government's official web portal to all federal, state and local government web resources and services.